Aérodrome :
LOGIN :

S'inscrire | Disclaimer

   EN    FR    IT 

 










Légende :    VFR   VFR Marginal   IFR   IFR Intensif   IFR Très Intensif
Visi : 
Plafond : 
>= 8 km
>= 3000ft
5 à 8 km
1000 à 3000 ft
1500m à 5 km
500 à 1000 ft
800 à 1500m
200 à 500 ft
< 800m
< 200 ft
Symboles :   Orages  Brouillard  Fortes neiges  Fortes précipitations  Vent > 20 kt
SIGMETs :   Divers  Orages  Givrage  Turbulence  Onde Orograph.  Cendres Volcan.







- Altitude de l'aérodrome : 1682 ft
- Code IATA : VIT


LEVT - Vitoria Gasteiz

DERNIER METAR :
  • 300300Z 21009KT 170V240 9999 FEW040 SCT050 12/06 Q1006

METARs EXPIRÉS :
  • 300230Z 21008KT 9999 FEW040 11/06 Q1006
  • 300200Z 24008KT 210V280 9999 FEW040 11/07 Q1006
  • 300130Z 21005KT 9999 FEW040 10/07 Q1006
  • 300100Z 21007KT 9999 FEW040 10/07 Q1007
  • 300030Z 21007KT 9999 FEW040 11/07 Q1007

TAF TAF LEVT
Valide du 30 à 00h jusqu'au 01 à 00h UTC


292300Z 3000/3024 17009KT 9999 FEW035 BKN050 TX16/3014Z TN02/3024Z
PROB30
TEMPO 3000/3003 SHRA SCT030TCU
PROB40
TEMPO 3003/3009 14015G25KT
BECMG 3006/3009 24012G22KT
PROB40
TEMPO 3006/3010 20020G32KT 4000 RA BKN014
TEMPO 3010/3015 26020G34KT 3000 RA SHRA BKN014 SCT025TCU
BECMG 3014/3018 36012G22KT
BECMG 3019/3022 VRB06KT
Pas de NOTAMs connus pour ce terrain.



MET'MAP, la Météo Aéronautique d'un coup d'oeil ! - Copyright ORBIFLY Décembre 2007 - Disclaimer

ORBIFLY MET'MAP TEAM :

Programmation & Développement : Alexandra Zaïnal
Conception & Développement : Baudouin d'Aumeries
Co-Programmation & Développement : Marc-Olivier Méhu
Soutien technique & logistique : Manuel Goepfert

Contact : metmap@orbifly.com




SOURCES & CREDITS :

   NOAA